Time;durP1;ratioP1;P1;durP2;ratioP2;P2;SDS_P1;SDS_P2;PMS_P1;PMS_P2;Temp;Humidity;BMP_temperature;BMP_pressure;BME280_temperature;BME280_humidity;BME280_pressure;Samples;Min_cycle;Max_cycle;Signal;HPM_P1;HPM_P2
2023/05/28 00:00:17;;;;;;;18.60;16.87;;;10.20;99.90;;;;;;4812888;29;20248;-42
2023/05/28 00:02:43;;;;;;;18.23;16.77;;;10.20;99.90;;;;;;4812311;29;20282;-42
2023/05/28 00:05:09;;;;;;;18.03;16.23;;;10.20;99.90;;;;;;4812265;29;20486;-42
2023/05/28 00:07:35;;;;;;;16.43;15.00;;;10.20;99.90;;;;;;4812217;29;20458;-47
2023/05/28 00:10:01;;;;;;;16.87;15.33;;;10.10;99.90;;;;;;4812566;29;20529;-44
2023/05/28 00:12:26;;;;;;;17.00;15.50;;;10.10;99.90;;;;;;4812627;29;20433;-42
2023/05/28 00:14:52;;;;;;;16.53;15.23;;;10.00;99.90;;;;;;4812895;29;20255;-42
2023/05/28 00:17:18;;;;;;;17.00;15.60;;;10.00;99.90;;;;;;4812399;29;20194;-42
2023/05/28 00:19:44;;;;;;;16.10;14.90;;;9.90;99.90;;;;;;4812693;29;20442;-42
2023/05/28 00:22:10;;;;;;;17.33;16.00;;;9.90;99.90;;;;;;4812247;29;20239;-47
2023/05/28 00:24:36;;;;;;;16.43;15.03;;;9.90;99.90;;;;;;4812717;29;20426;-43
2023/05/28 00:27:02;;;;;;;16.80;15.47;;;9.90;99.90;;;;;;4812518;29;20193;-42
2023/05/28 00:29:29;;;;;;;15.70;14.40;;;9.80;99.90;;;;;;4812471;29;20196;-42
2023/05/28 00:31:57;;;;;;;16.77;15.27;;;9.80;99.90;;;;;;4811100;29;21653;-43
2023/05/28 00:34:23;;;;;;;16.83;15.40;;;9.80;99.90;;;;;;4812309;29;20468;-43
2023/05/28 00:36:49;;;;;;;16.90;15.60;;;9.80;99.90;;;;;;4812135;29;20906;-47
2023/05/28 00:39:15;;;;;;;15.73;14.50;;;9.70;99.90;;;;;;4812556;29;20419;-48
2023/05/28 00:41:41;;;;;;;16.60;15.13;;;9.70;99.90;;;;;;4812281;29;20429;-53
2023/05/28 00:44:08;;;;;;;16.13;14.80;;;9.60;99.90;;;;;;4812623;29;20425;-55
2023/05/28 00:46:35;;;;;;;17.53;16.03;;;9.60;99.90;;;;;;4811262;29;20262;-54
2023/05/28 00:49:01;;;;;;;16.60;14.90;;;9.50;99.90;;;;;;4811946;29;20433;-52
2023/05/28 00:51:28;;;;;;;15.87;14.37;;;9.50;99.90;;;;;;4812151;29;20772;-49
2023/05/28 00:53:54;;;;;;;15.30;14.20;;;9.40;99.90;;;;;;4811982;29;20455;-50
2023/05/28 00:56:22;;;;;;;16.70;15.20;;;9.40;99.90;;;;;;4811962;29;20479;-50
2023/05/28 00:58:48;;;;;;;16.57;15.13;;;9.40;99.90;;;;;;4812466;29;20456;-51
2023/05/28 01:01:14;;;;;;;16.13;14.83;;;9.30;99.90;;;;;;4812021;29;20470;-51
2023/05/28 01:03:40;;;;;;;15.60;14.40;;;9.30;99.90;;;;;;4811884;29;21114;-49
2023/05/28 01:06:12;;;;;;;15.87;14.47;;;9.30;99.90;;;;;;4795291;29;21229;-52
2023/05/28 01:08:38;;;;;;;13.80;12.80;;;9.20;99.90;;;;;;4812089;29;20445;-53
2023/05/28 01:11:13;;;;;;;16.50;15.10;;;9.20;99.90;;;;;;4812376;29;20431;-51
2023/05/28 01:13:40;;;;;;;16.00;14.70;;;9.20;99.90;;;;;;4811982;29;20467;-51
2023/05/28 01:16:06;;;;;;;17.27;15.50;;;9.20;99.90;;;;;;4811163;29;20546;-53
2023/05/28 01:18:32;;;;;;;15.63;14.43;;;9.10;99.90;;;;;;4811910;29;20419;-50
2023/05/28 01:21:02;;;;;;;15.80;14.40;;;9.20;99.90;;;;;;4811965;29;20219;-50
2023/05/28 01:23:29;;;;;;;15.13;14.00;;;9.10;99.90;;;;;;4814529;29;20473;-50
2023/05/28 01:25:59;;;;;;;16.90;15.40;;;9.00;99.90;;;;;;4815548;29;20464;-53
2023/05/28 01:28:25;;;;;;;14.57;13.23;;;9.00;99.90;;;;;;4815455;29;20486;-51
2023/05/28 01:30:52;;;;;;;15.70;14.40;;;9.00;99.90;;;;;;4815029;29;20463;-52
2023/05/28 01:33:20;;;;;;;16.60;15.20;;;8.90;99.90;;;;;;4814949;29;20431;-49
2023/05/28 01:35:46;;;;;;;16.00;14.60;;;8.90;99.90;;;;;;4814671;29;21212;-53
2023/05/28 01:38:15;;;;;;;14.97;13.77;;;8.90;99.90;;;;;;4815044;29;20427;-49
2023/05/28 01:40:46;;;;;;;14.83;13.53;;;8.80;99.90;;;;;;4815058;29;20319;-53
2023/05/28 01:43:12;;;;;;;16.37;14.80;;;8.80;99.90;;;;;;4798976;29;20503;-49
2023/05/28 01:45:39;;;;;;;15.83;14.60;;;8.80;99.90;;;;;;4813809;29;20784;-49
2023/05/28 01:48:06;;;;;;;14.60;13.50;;;8.80;99.90;;;;;;4814185;29;20446;-49
2023/05/28 01:50:32;;;;;;;14.40;13.20;;;8.80;99.90;;;;;;4814896;29;20426;-52
2023/05/28 01:52:59;;;;;;;14.13;13.03;;;8.70;99.90;;;;;;4814565;29;20427;-51
2023/05/28 01:55:24;;;;;;;14.43;13.10;;;8.80;99.90;;;;;;4813475;29;20483;-53
2023/05/28 01:57:50;;;;;;;14.83;13.70;;;8.70;99.90;;;;;;4815256;29;20438;-50
2023/05/28 02:00:16;;;;;;;14.43;13.00;;;8.70;99.90;;;;;;4814533;29;20191;-52
2023/05/28 02:02:42;;;;;;;14.67;13.47;;;8.70;99.90;;;;;;4814780;29;20214;-53
2023/05/28 02:05:08;;;;;;;14.80;13.57;;;8.70;99.90;;;;;;4813639;29;20550;-54
2023/05/28 02:07:34;;;;;;;14.97;13.70;;;8.60;99.90;;;;;;4813921;29;20444;-51
2023/05/28 02:10:00;;;;;;;14.70;13.53;;;8.60;99.90;;;;;;4814508;29;20438;-51
2023/05/28 02:12:26;;;;;;;14.80;13.50;;;8.60;99.90;;;;;;4814165;29;20183;-52
2023/05/28 02:14:52;;;;;;;13.97;12.90;;;8.50;99.90;;;;;;4814435;29;20427;-47
2023/05/28 02:17:19;;;;;;;15.07;13.80;;;8.50;99.90;;;;;;4812104;29;20542;-54
2023/05/28 02:19:44;;;;;;;14.37;13.17;;;8.50;99.90;;;;;;4814027;29;20209;-53
2023/05/28 02:22:11;;;;;;;14.87;13.67;;;8.40;99.90;;;;;;4814466;29;20479;-53
2023/05/28 02:24:40;;;;;;;14.60;13.40;;;8.40;99.90;;;;;;4814040;29;20657;-51
2023/05/28 02:27:06;;;;;;;14.50;13.40;;;8.40;99.90;;;;;;4814280;29;21127;-53
2023/05/28 02:29:32;;;;;;;16.03;14.40;;;8.30;99.90;;;;;;4814225;29;20463;-50
2023/05/28 02:31:58;;;;;;;14.33;13.13;;;8.20;99.90;;;;;;4814482;29;20522;-48
2023/05/28 02:34:24;;;;;;;13.90;12.80;;;8.20;99.90;;;;;;4813134;29;20194;-52
2023/05/28 02:36:52;;;;;;;14.60;13.37;;;8.20;99.90;;;;;;4814300;29;20490;-48
2023/05/28 02:39:18;;;;;;;15.00;13.80;;;8.10;99.90;;;;;;4813955;29;20647;-51
2023/05/28 02:41:44;;;;;;;15.30;14.10;;;8.10;99.90;;;;;;4814351;29;20426;-51
2023/05/28 02:44:09;;;;;;;14.57;13.57;;;8.10;99.90;;;;;;4814124;29;20867;-45
2023/05/28 02:46:35;;;;;;;14.60;13.40;;;8.10;99.90;;;;;;4812161;29;20570;-45
2023/05/28 02:49:00;;;;;;;14.33;13.13;;;8.00;99.90;;;;;;4813083;29;20190;-53
2023/05/28 02:51:26;;;;;;;13.47;12.40;;;8.00;99.90;;;;;;4813854;29;20246;-53
2023/05/28 02:53:51;;;;;;;14.53;13.33;;;8.00;99.90;;;;;;4813713;29;20776;-50
2023/05/28 02:56:17;;;;;;;14.77;13.47;;;7.90;99.90;;;;;;4813742;29;20229;-49
2023/05/28 02:58:43;;;;;;;14.67;13.47;;;7.90;99.90;;;;;;4813755;29;20219;-52
2023/05/28 03:01:08;;;;;;;14.70;13.50;;;7.90;99.90;;;;;;4813610;29;20217;-53
2023/05/28 03:03:34;;;;;;;14.60;13.30;;;7.90;99.90;;;;;;4813377;29;20277;-52
2023/05/28 03:06:00;;;;;;;14.40;13.20;;;7.90;99.90;;;;;;4813940;29;20666;-53
2023/05/28 03:08:26;;;;;;;15.00;13.50;;;7.90;99.90;;;;;;4813743;29;20209;-53
2023/05/28 03:10:51;;;;;;;13.90;12.80;;;7.90;99.90;;;;;;4813280;29;20438;-49
2023/05/28 03:13:17;;;;;;;14.73;13.60;;;7.90;99.90;;;;;;4813681;29;20273;-48
2023/05/28 03:15:42;;;;;;;15.10;13.50;;;7.90;99.90;;;;;;4812447;29;20225;-53
2023/05/28 03:18:08;;;;;;;13.93;12.80;;;7.80;99.90;;;;;;4814002;29;20230;-48
2023/05/28 03:20:33;;;;;;;14.00;12.80;;;7.80;99.90;;;;;;4813493;29;20235;-48
2023/05/28 03:22:59;;;;;;;13.83;12.60;;;7.80;99.90;;;;;;4813082;29;20233;-48
2023/05/28 03:25:25;;;;;;;12.70;11.63;;;7.70;99.90;;;;;;4813382;29;20266;-49
2023/05/28 03:27:52;;;;;;;13.20;12.10;;;7.70;99.90;;;;;;4813380;29;20218;-50
2023/05/28 03:30:18;;;;;;;14.03;12.93;;;7.70;99.90;;;;;;4813718;29;20923;-53
2023/05/28 03:32:43;;;;;;;14.63;13.20;;;7.70;99.90;;;;;;4813333;29;20438;-54
2023/05/28 03:35:09;;;;;;;13.47;12.37;;;7.60;99.90;;;;;;4812918;29;20213;-53
2023/05/28 03:37:35;;;;;;;13.10;12.10;;;7.70;99.90;;;;;;4813326;29;20268;-53
2023/05/28 03:40:00;;;;;;;13.87;12.63;;;7.60;99.90;;;;;;4812972;29;21009;-50
2023/05/28 03:42:26;;;;;;;13.20;12.20;;;7.60;99.90;;;;;;4813174;29;20186;-52
2023/05/28 03:44:52;;;;;;;12.70;11.90;;;7.70;99.90;;;;;;4812365;29;20201;-52
2023/05/28 03:47:18;;;;;;;13.50;12.43;;;7.70;99.90;;;;;;4812266;29;20194;-47
2023/05/28 03:49:43;;;;;;;13.50;12.30;;;7.70;99.90;;;;;;4813036;29;20852;-48
2023/05/28 03:52:10;;;;;;;13.73;12.63;;;7.70;99.90;;;;;;4812699;29;20427;-52
2023/05/28 03:54:36;;;;;;;12.80;11.80;;;7.70;99.90;;;;;;4812963;29;20903;-53
2023/05/28 03:57:01;;;;;;;13.00;11.70;;;7.70;99.90;;;;;;4812559;29;20463;-51
2023/05/28 03:59:27;;;;;;;13.20;12.10;;;7.70;99.90;;;;;;4811250;29;21432;-53
2023/05/28 04:01:53;;;;;;;12.40;11.20;;;7.70;99.90;;;;;;4812983;29;20197;-50
2023/05/28 04:04:18;;;;;;;12.73;11.60;;;7.60;99.90;;;;;;4812834;29;20186;-52
2023/05/28 04:06:44;;;;;;;12.97;11.67;;;7.70;99.90;;;;;;4812922;29;20243;-51
2023/05/28 04:09:10;;;;;;;13.80;12.60;;;7.70;99.90;;;;;;4812609;29;20198;-50
2023/05/28 04:11:37;;;;;;;13.00;11.83;;;7.70;99.90;;;;;;4812538;29;21059;-53
2023/05/28 04:14:03;;;;;;;12.57;11.57;;;7.70;99.90;;;;;;4812234;29;20281;-53
2023/05/28 04:16:29;;;;;;;13.20;11.93;;;7.70;99.90;;;;;;4812763;29;20471;-53
2023/05/28 04:18:54;;;;;;;14.03;12.73;;;7.80;99.90;;;;;;4812951;29;21001;-53
2023/05/28 04:21:22;;;;;;;12.70;11.60;;;7.80;99.90;;;;;;4812623;29;20423;-54
2023/05/28 04:23:47;;;;;;;13.10;12.10;;;7.90;99.90;;;;;;4812218;29;20224;-51
2023/05/28 04:26:14;;;;;;;13.00;11.90;;;7.90;99.90;;;;;;4812592;29;20439;-50
2023/05/28 04:28:40;;;;;;;14.50;13.07;;;7.90;99.90;;;;;;4812673;29;20438;-49
2023/05/28 04:31:06;;;;;;;12.80;11.80;;;8.00;99.90;;;;;;4810576;29;20503;-53
2023/05/28 04:33:32;;;;;;;11.93;10.87;;;8.00;99.90;;;;;;4812314;29;20785;-53
2023/05/28 04:35:59;;;;;;;13.40;12.40;;;8.00;99.90;;;;;;4812417;29;20213;-49
2023/05/28 04:38:28;;;;;;;13.50;12.60;;;8.10;99.90;;;;;;4812304;29;20422;-52
2023/05/28 04:40:54;;;;;;;14.03;12.90;;;8.10;99.90;;;;;;4812169;29;20435;-53
2023/05/28 04:43:21;;;;;;;14.37;13.13;;;8.20;99.90;;;;;;4812249;29;20438;-48
2023/05/28 04:45:47;;;;;;;14.43;13.37;;;8.20;99.90;;;;;;4811458;29;20441;-51
2023/05/28 04:48:12;;;;;;;14.37;13.27;;;8.20;99.90;;;;;;4812270;29;20922;-53
2023/05/28 04:50:39;;;;;;;13.60;12.43;;;8.30;99.90;;;;;;4812490;29;20523;-50
2023/05/28 04:53:04;;;;;;;14.80;13.60;;;8.40;99.90;;;;;;4812057;29;20205;-53
2023/05/28 04:55:30;;;;;;;13.47;12.40;;;8.40;99.90;;;;;;4812311;29;20478;-48
2023/05/28 04:57:55;;;;;;;13.70;12.70;;;8.50;99.90;;;;;;4814349;29;20195;-52
2023/05/28 05:00:23;;;;;;;14.20;13.20;;;8.50;99.90;;;;;;4815136;29;20209;-50
2023/05/28 05:02:50;;;;;;;14.87;13.47;;;8.60;99.90;;;;;;4815574;29;20661;-51
2023/05/28 05:05:16;;;;;;;14.50;13.50;;;8.60;99.90;;;;;;4814798;29;20926;-51
2023/05/28 05:07:42;;;;;;;14.40;13.30;;;8.70;99.90;;;;;;4815402;29;20451;-50
2023/05/28 05:10:09;;;;;;;14.00;12.83;;;8.80;99.90;;;;;;4815788;29;20196;-50
2023/05/28 05:12:35;;;;;;;14.50;13.40;;;8.90;99.90;;;;;;4815250;29;20201;-51
2023/05/28 05:15:01;;;;;;;14.50;13.50;;;9.00;99.90;;;;;;4815551;29;21267;-49
2023/05/28 05:17:27;;;;;;;14.27;13.03;;;9.10;99.90;;;;;;4815335;29;21535;-54
2023/05/28 05:19:52;;;;;;;13.77;12.70;;;9.20;99.90;;;;;;4815176;29;20434;-51
2023/05/28 05:22:18;;;;;;;13.77;12.80;;;9.20;99.90;;;;;;4814979;29;20263;-55
2023/05/28 05:24:47;;;;;;;13.97;12.77;;;9.30;99.90;;;;;;4815351;29;20745;-49
2023/05/28 05:27:12;;;;;;;13.20;12.20;;;9.50;99.90;;;;;;4814715;29;20468;-52
2023/05/28 05:29:38;;;;;;;13.17;12.27;;;9.50;99.90;;;;;;4815168;29;20422;-54
2023/05/28 05:32:04;;;;;;;14.40;13.30;;;9.60;99.90;;;;;;4815000;29;20679;-53
2023/05/28 05:34:29;;;;;;;13.40;12.50;;;9.70;99.90;;;;;;4814325;29;20214;-51
2023/05/28 05:36:55;;;;;;;13.70;12.70;;;9.70;99.90;;;;;;4813999;29;21045;-54
2023/05/28 05:39:21;;;;;;;14.10;13.10;;;9.80;99.90;;;;;;4815118;29;20723;-49
2023/05/28 05:41:46;;;;;;;13.60;12.80;;;9.80;99.90;;;;;;4814600;29;20201;-52
2023/05/28 05:44:12;;;;;;;13.93;12.93;;;9.90;99.90;;;;;;4812925;29;20204;-51
2023/05/28 05:46:37;;;;;;;13.97;12.90;;;10.00;99.90;;;;;;4813879;29;20193;-49
2023/05/28 05:49:03;;;;;;;13.60;12.63;;;10.10;99.90;;;;;;4814766;29;20200;-52
2023/05/28 05:51:29;;;;;;;13.30;12.50;;;10.20;99.90;;;;;;4814179;29;20189;-50
2023/05/28 05:53:54;;;;;;;13.60;12.67;;;10.20;99.90;;;;;;4814295;29;20201;-50
2023/05/28 05:56:20;;;;;;;13.93;12.90;;;10.40;99.90;;;;;;4815172;29;20208;-52
2023/05/28 05:58:45;;;;;;;13.13;12.13;;;10.50;99.90;;;;;;4814319;29;20189;-50
2023/05/28 06:01:13;;;;;;;14.63;13.53;;;10.70;99.90;;;;;;4813375;29;20225;-48
2023/05/28 06:03:39;;;;;;;13.57;12.73;;;10.80;99.90;;;;;;4814373;29;20220;-43
2023/05/28 06:06:06;;;;;;;13.73;12.80;;;10.80;99.90;;;;;;4814821;29;20524;-41
2023/05/28 06:08:33;;;;;;;13.20;12.40;;;10.90;99.90;;;;;;4813414;29;20728;-42
2023/05/28 06:10:58;;;;;;;14.83;13.70;;;11.00;99.90;;;;;;4814245;29;20446;-46
2023/05/28 06:13:24;;;;;;;14.40;13.20;;;11.20;99.90;;;;;;4814320;29;20434;-44
2023/05/28 06:15:50;;;;;;;14.33;13.13;;;11.30;99.90;;;;;;4814227;29;20213;-46
2023/05/28 06:18:16;;;;;;;13.93;13.07;;;11.40;99.90;;;;;;4814556;29;20848;-42
2023/05/28 06:20:42;;;;;;;14.03;13.03;;;11.50;99.90;;;;;;4814355;29;20194;-45
2023/05/28 06:23:07;;;;;;;14.40;13.30;;;11.60;99.90;;;;;;4814032;29;20570;-44
2023/05/28 06:25:35;;;;;;;14.07;12.97;;;11.70;99.90;;;;;;4814156;29;20204;-42
2023/05/28 06:28:01;;;;;;;13.50;12.60;;;11.90;99.90;;;;;;4814224;29;20194;-45
2023/05/28 06:30:26;;;;;;;13.50;12.60;;;12.00;99.90;;;;;;4813162;29;20458;-48
2023/05/28 06:32:52;;;;;;;13.40;12.60;;;12.10;99.90;;;;;;4814285;29;20435;-47
2023/05/28 06:35:18;;;;;;;14.30;13.27;;;12.20;99.90;;;;;;4813942;29;20217;-43
2023/05/28 06:37:44;;;;;;;13.97;13.07;;;12.30;99.90;;;;;;4814267;29;20200;-45
2023/05/28 06:40:10;;;;;;;13.90;12.90;;;12.40;99.90;;;;;;4814070;29;20415;-43
2023/05/28 06:42:37;;;;;;;13.87;12.80;;;12.40;99.90;;;;;;4813900;29;21406;-43
2023/05/28 06:45:03;;;;;;;15.10;14.00;;;12.50;99.90;;;;;;4813798;29;20427;-43
2023/05/28 06:47:29;;;;;;;14.33;13.27;;;12.50;99.90;;;;;;4813904;29;20437;-42
2023/05/28 06:49:55;;;;;;;14.40;13.50;;;12.60;99.90;;;;;;4814104;29;20427;-43
2023/05/28 06:52:21;;;;;;;13.73;12.63;;;12.70;99.90;;;;;;4814222;29;20652;-47
2023/05/28 06:54:47;;;;;;;13.30;12.60;;;12.90;99.90;;;;;;4813674;29;20575;-43
2023/05/28 06:57:12;;;;;;;13.70;12.80;;;13.00;99.90;;;;;;4813860;29;20427;-42
2023/05/28 06:59:38;;;;;;;13.67;12.80;;;13.20;99.90;;;;;;4812586;29;20201;-45
2023/05/28 07:02:04;;;;;;;14.27;13.30;;;13.40;99.90;;;;;;4808096;29;20208;-44
2023/05/28 07:04:30;;;;;;;14.63;13.43;;;13.60;99.90;;;;;;4812870;29;20317;-43
2023/05/28 07:06:55;;;;;;;12.70;11.80;;;13.70;99.90;;;;;;4813542;29;20431;-43
2023/05/28 07:09:21;;;;;;;13.73;12.90;;;13.90;99.90;;;;;;4813611;29;20208;-46
2023/05/28 07:11:47;;;;;;;14.03;13.13;;;14.00;99.90;;;;;;4813924;29;20202;-44
2023/05/28 07:14:12;;;;;;;14.00;13.00;;;14.10;99.90;;;;;;4813486;29;20201;-44
2023/05/28 07:16:38;;;;;;;13.67;12.77;;;14.20;99.90;;;;;;4813476;29;20220;-49
2023/05/28 07:19:04;;;;;;;13.80;12.90;;;14.30;99.90;;;;;;4813352;29;20235;-46
2023/05/28 07:21:31;;;;;;;13.83;12.87;;;14.50;99.90;;;;;;4813455;29;20531;-44
2023/05/28 07:23:57;;;;;;;13.33;12.50;;;14.70;99.90;;;;;;4812855;29;20340;-46
2023/05/28 07:26:22;;;;;;;13.60;12.70;;;14.80;99.90;;;;;;4813330;29;20435;-46
2023/05/28 07:28:48;;;;;;;13.70;12.67;;;15.00;99.90;;;;;;4813239;29;20578;-43
2023/05/28 07:31:14;;;;;;;14.03;13.03;;;15.20;99.90;;;;;;4812826;29;21128;-43
2023/05/28 07:33:39;;;;;;;12.53;11.73;;;15.30;99.90;;;;;;4810547;29;20190;-43
2023/05/28 07:36:06;;;;;;;12.53;11.70;;;15.50;99.90;;;;;;4813008;29;20251;-43
2023/05/28 07:38:31;;;;;;;13.20;12.00;;;15.70;99.90;;;;;;4813193;29;20178;-45
2023/05/28 07:40:57;;;;;;;12.53;11.63;;;15.80;99.90;;;;;;4812882;29;20427;-43
2023/05/28 07:43:22;;;;;;;12.10;11.40;;;16.00;98.90;;;;;;4813123;29;20276;-44
2023/05/28 07:45:48;;;;;;;12.37;11.67;;;16.10;98.20;;;;;;4812701;29;20186;-45
2023/05/28 07:48:14;;;;;;;12.90;12.03;;;16.10;97.20;;;;;;4813017;29;20194;-43
2023/05/28 07:50:40;;;;;;;12.30;11.50;;;16.30;96.50;;;;;;4813082;29;20264;-45
2023/05/28 07:53:06;;;;;;;13.87;12.77;;;16.40;96.30;;;;;;4812900;29;20262;-44
2023/05/28 07:55:32;;;;;;;12.63;11.83;;;16.60;96.50;;;;;;4812665;29;20550;-41
2023/05/28 07:57:58;;;;;;;12.73;11.87;;;16.80;95.50;;;;;;4813149;29;20193;-45
2023/05/28 08:00:26;;;;;;;12.10;11.40;;;16.90;93.30;;;;;;4812008;29;21095;-44
2023/05/28 08:02:51;;;;;;;12.80;11.90;;;17.10;92.30;;;;;;4812931;29;20522;-42
2023/05/28 08:05:18;;;;;;;13.33;12.33;;;17.20;91.10;;;;;;4812836;29;20433;-47
2023/05/28 08:07:44;;;;;;;13.47;12.47;;;17.30;90.70;;;;;;4812353;29;20204;-43
2023/05/28 08:10:10;;;;;;;13.20;12.30;;;17.40;90.10;;;;;;4812462;29;20472;-44
2023/05/28 08:12:35;;;;;;;12.70;11.90;;;17.50;87.60;;;;;;4812379;29;20423;-43
2023/05/28 08:15:01;;;;;;;12.07;11.20;;;17.70;85.30;;;;;;4812644;29;20296;-43
2023/05/28 08:17:30;;;;;;;11.43;10.73;;;17.80;82.50;;;;;;4811069;29;20197;-46
2023/05/28 08:19:56;;;;;;;11.67;10.80;;;18.00;82.50;;;;;;4812585;29;20189;-47
2023/05/28 08:22:21;;;;;;;12.20;11.43;;;18.30;80.10;;;;;;4812057;29;20485;-47
2023/05/28 08:24:47;;;;;;;12.70;11.70;;;18.40;79.60;;;;;;4812980;29;20661;-43
2023/05/28 08:27:12;;;;;;;12.40;11.70;;;18.60;76.10;;;;;;4812427;29;20258;-41
2023/05/28 08:29:38;;;;;;;13.27;12.37;;;18.70;71.70;;;;;;4811840;29;20205;-43
2023/05/28 08:32:04;;;;;;;12.87;12.00;;;18.90;70.90;;;;;;4812039;29;20193;-48
2023/05/28 08:34:30;;;;;;;10.97;10.33;;;19.10;68.10;;;;;;4812520;29;20592;-42
2023/05/28 08:36:56;;;;;;;12.60;11.90;;;19.20;67.50;;;;;;4812579;29;20483;-44
2023/05/28 08:39:24;;;;;;;11.23;10.63;;;19.50;62.70;;;;;;4812200;29;20665;-42
2023/05/28 08:41:49;;;;;;;12.77;12.07;;;19.70;60.40;;;;;;4812326;29;20182;-42
2023/05/28 08:44:15;;;;;;;12.93;12.13;;;19.70;58.20;;;;;;4812275;29;20470;-42
2023/05/28 08:46:41;;;;;;;12.60;11.90;;;19.90;57.60;;;;;;4810498;29;20201;-48
2023/05/28 08:49:10;;;;;;;11.77;11.07;;;20.10;56.30;;;;;;4812288;29;20213;-48
2023/05/28 08:51:37;;;;;;;13.10;12.30;;;20.40;54.60;;;;;;4812343;29;20439;-47
2023/05/28 08:54:03;;;;;;;11.77;11.07;;;20.60;53.60;;;;;;4812299;29;20426;-44
2023/05/28 08:56:28;;;;;;;11.10;10.60;;;20.80;53.00;;;;;;4812051;29;21673;-48
2023/05/28 08:58:55;;;;;;;11.70;11.10;;;21.10;49.50;;;;;;4811323;29;20190;-48
2023/05/28 09:01:20;;;;;;;11.17;10.43;;;21.30;49.30;;;;;;4812112;29;20213;-43
2023/05/28 09:03:46;;;;;;;11.70;10.63;;;21.60;47.10;;;;;;4812041;29;20600;-44
2023/05/28 09:06:15;;;;;;;11.53;10.83;;;22.00;44.50;;;;;;4811971;29;20209;-44
2023/05/28 09:08:43;;;;;;;10.73;10.13;;;22.40;42.90;;;;;;4811680;29;20178;-44
2023/05/28 09:11:11;;;;;;;10.90;10.20;;;22.60;41.00;;;;;;4812011;29;20434;-42
2023/05/28 09:13:44;;;;;;;11.07;10.57;;;23.00;40.00;;;;;;4810497;29;20490;-47
2023/05/28 09:16:11;;;;;;;11.23;10.63;;;23.50;41.50;;;;;;4812043;29;20534;-45
2023/05/28 09:18:37;;;;;;;11.10;10.57;;;23.90;37.50;;;;;;4811709;29;20449;-47
2023/05/28 09:21:11;;;;;;;10.10;9.50;;;24.30;36.10;;;;;;4811831;29;20430;-45
2023/05/28 09:23:38;;;;;;;11.20;10.70;;;24.80;33.30;;;;;;4811740;29;20528;-43
2023/05/28 09:26:09;;;;;;;11.67;10.87;;;25.00;30.10;;;;;;4811797;29;20431;-45
2023/05/28 09:28:35;;;;;;;11.80;11.20;;;25.40;28.70;;;;;;4811947;29;20491;-45
2023/05/28 09:31:04;;;;;;;11.67;10.87;;;25.70;28.30;;;;;;4811679;29;20423;-48
2023/05/28 09:33:30;;;;;;;11.33;10.77;;;26.00;28.80;;;;;;4811810;29;20201;-50
2023/05/28 09:36:00;;;;;;;11.67;10.97;;;26.30;28.20;;;;;;4811529;29;20484;-44
2023/05/28 09:38:27;;;;;;;11.87;11.27;;;26.70;26.30;;;;;;4811609;29;20933;-47
2023/05/28 09:40:55;;;;;;;11.80;11.10;;;27.50;24.90;;;;;;4811526;29;20940;-48
2023/05/28 09:43:30;;;;;;;11.40;10.90;;;27.50;24.50;;;;;;4811196;29;20587;-45
2023/05/28 09:46:09;;;;;;;10.63;10.13;;;27.90;24.60;;;;;;4814898;29;21160;-46
2023/05/28 09:48:34;;;;;;;11.33;10.83;;;28.20;23.40;;;;;;4814885;29;20434;-45
2023/05/28 09:51:04;;;;;;;11.80;11.20;;;28.40;24.70;;;;;;4814990;29;20435;-45
2023/05/28 09:53:34;;;;;;;11.53;10.93;;;28.80;23.30;;;;;;4815034;29;20206;-46
2023/05/28 09:56:01;;;;;;;10.80;10.30;;;29.10;22.60;;;;;;4814780;29;20550;-48
2023/05/28 09:58:34;;;;;;;11.33;10.63;;;29.40;22.30;;;;;;4814956;29;21042;-49
2023/05/28 10:01:10;;;;;;;11.20;10.60;;;29.60;21.40;;;;;;4798411;29;20450;-45
2023/05/28 10:03:44;;;;;;;11.57;10.97;;;30.00;22.20;;;;;;4798347;29;20771;-48
2023/05/28 10:06:30;;;;;;;11.70;11.10;;;30.40;21.90;;;;;;4814381;29;20515;-49
2023/05/28 10:08:59;;;;;;;11.07;10.57;;;30.50;20.60;;;;;;4814589;29;20431;-48
2023/05/28 10:11:31;;;;;;;11.30;10.70;;;30.70;21.40;;;;;;4813351;29;20575;-47
2023/05/28 10:13:57;;;;;;;10.10;9.60;;;30.90;20.50;;;;;;4813281;29;20450;-46
2023/05/28 10:16:24;;;;;;;12.17;11.43;;;31.30;20.10;;;;;;4814562;29;21261;-44
2023/05/28 10:18:51;;;;;;;11.77;11.17;;;31.60;19.60;;;;;;4814397;29;20430;-49
2023/05/28 10:21:19;;;;;;;11.80;11.20;;;31.80;19.40;;;;;;4814424;29;20492;-42
2023/05/28 10:23:46;;;;;;;10.80;10.20;;;32.00;18.20;;;;;;4813955;29;20976;-46
2023/05/28 10:26:13;;;;;;;11.07;10.57;;;32.50;17.70;;;;;;4814376;29;20542;-44
2023/05/28 10:28:38;;;;;;;11.57;10.97;;;32.60;17.80;;;;;;4814643;29;20427;-46
2023/05/28 10:31:06;;;;;;;11.57;10.97;;;32.60;18.00;;;;;;4814349;29;20429;-48
2023/05/28 10:33:41;;;;;;;11.40;10.80;;;32.80;16.70;;;;;;4814306;29;20190;-48
2023/05/28 10:36:15;;;;;;;11.50;10.90;;;32.70;17.10;;;;;;4812745;29;20561;-48
2023/05/28 10:38:53;;;;;;;11.30;10.70;;;32.80;17.40;;;;;;4814202;29;20434;-46
2023/05/28 10:41:21;;;;;;;11.43;10.83;;;32.80;16.70;;;;;;4812958;29;20465;-45
2023/05/28 10:43:48;;;;;;;11.53;10.93;;;32.60;16.60;;;;;;4812897;29;20459;-49
2023/05/28 10:46:23;;;;;;;11.63;11.00;;;32.40;18.00;;;;;;4811763;29;20526;-48
2023/05/28 10:49:14;;;;;;;10.93;10.33;;;32.90;18.00;;;;;;4814082;29;20510;-46
2023/05/28 10:51:54;;;;;;;11.33;10.73;;;33.60;16.90;;;;;;4813927;29;20576;-44
2023/05/28 10:54:29;;;;;;;11.40;10.80;;;33.60;15.50;;;;;;4813084;29;20426;-45
2023/05/28 10:57:14;;;;;;;11.73;11.23;;;33.70;15.80;;;;;;4813350;29;20474;-48
2023/05/28 10:59:46;;;;;;;11.40;10.90;;;33.90;15.10;;;;;;4813857;29;20423;-41
2023/05/28 11:02:15;;;;;;;11.43;10.83;;;33.80;14.20;;;;;;4813839;29;20422;-46
2023/05/28 11:04:41;;;;;;;11.17;10.67;;;33.70;15.20;;;;;;4813946;29;21451;-46
2023/05/28 11:07:08;;;;;;;11.60;11.00;;;33.70;14.90;;;;;;4813703;29;20509;-45
2023/05/28 11:09:34;;;;;;;11.80;11.20;;;33.80;15.40;;;;;;4813306;29;20495;-43
2023/05/28 11:12:05;;;;;;;9.93;9.43;;;34.10;15.30;;;;;;4813282;29;20475;-48
2023/05/28 11:14:38;;;;;;;11.73;10.60;;;34.20;15.10;;;;;;4812886;29;20439;-48
2023/05/28 11:17:11;;;;;;;11.60;11.10;;;34.50;15.30;;;;;;4813112;29;20515;-45
2023/05/28 11:19:47;;;;;;;11.57;10.97;;;34.90;14.80;;;;;;4813422;29;20431;-47
2023/05/28 11:22:14;;;;;;;11.43;10.93;;;34.90;14.10;;;;;;4813168;29;20466;-50
2023/05/28 11:24:56;;;;;;;11.40;10.77;;;35.20;13.90;;;;;;4813334;29;20431;-47
2023/05/28 11:27:25;;;;;;;11.70;10.90;;;35.30;14.00;;;;;;4813157;29;20898;-47
2023/05/28 11:29:53;;;;;;;11.50;10.80;;;35.50;13.90;;;;;;4813190;29;20431;-46
2023/05/28 11:32:21;;;;;;;11.73;11.13;;;35.00;13.80;;;;;;4813190;29;20435;-43
2023/05/28 11:34:52;;;;;;;11.50;10.83;;;35.00;14.00;;;;;;4814193;29;20431;-50
2023/05/28 11:37:28;;;;;;;9.83;9.40;;;35.20;13.50;;;;;;4813112;29;20550;-48
2023/05/28 11:39:56;;;;;;;10.23;9.57;;;35.40;13.80;;;;;;4813115;29;20426;-46
2023/05/28 11:42:22;;;;;;;11.33;10.73;;;35.20;13.40;;;;;;4811808;29;21548;-48
2023/05/28 11:44:49;;;;;;;11.57;10.97;;;35.10;14.20;;;;;;4812848;29;20434;-45
2023/05/28 11:47:15;;;;;;;11.53;10.77;;;35.00;13.50;;;;;;4813146;29;20473;-46
2023/05/28 11:49:42;;;;;;;11.60;11.00;;;35.10;13.50;;;;;;4813144;29;20910;-49
2023/05/28 11:52:21;;;;;;;11.80;11.23;;;35.20;12.70;;;;;;4812501;29;20596;-45
2023/05/28 11:54:53;;;;;;;11.47;10.83;;;34.90;12.70;;;;;;4812653;29;20423;-46
2023/05/28 11:57:23;;;;;;;11.17;10.67;;;35.10;12.80;;;;;;4812990;29;20427;-45
2023/05/28 11:59:55;;;;;;;11.70;11.13;;;35.10;13.20;;;;;;4812870;29;20442;-49
2023/05/28 12:02:22;;;;;;;11.80;11.30;;;35.00;12.80;;;;;;4812746;29;20431;-44
2023/05/28 12:04:56;;;;;;;12.53;11.93;;;35.00;13.10;;;;;;4812814;29;20438;-44
2023/05/28 12:07:33;;;;;;;11.60;11.10;;;35.20;12.50;;;;;;4811869;29;21255;-48
2023/05/28 12:10:10;;;;;;;12.10;11.50;;;35.30;11.90;;;;;;4812750;29;20914;-47
2023/05/28 12:12:42;;;;;;;11.37;10.50;;;35.70;12.00;;;;;;4811539;29;20510;-46
2023/05/28 12:15:08;;;;;;;11.27;10.67;;;36.20;11.60;;;;;;4796443;29;20439;-46
2023/05/28 12:17:43;;;;;;;9.77;9.17;;;36.10;11.10;;;;;;4812609;29;20465;-49
2023/05/28 12:20:17;;;;;;;11.40;10.80;;;35.90;10.80;;;;;;4812875;29;20491;-48
2023/05/28 12:22:43;;;;;;;11.50;10.90;;;36.00;11.60;;;;;;4812577;29;20494;-47
2023/05/28 12:25:10;;;;;;;12.07;11.47;;;35.90;11.00;;;;;;4812537;29;20435;-49
2023/05/28 12:27:37;;;;;;;11.87;11.17;;;36.40;11.00;;;;;;4812658;29;20505;-44
2023/05/28 12:30:06;;;;;;;11.20;10.67;;;36.20;11.00;;;;;;4812487;29;20435;-49